LNTER ENBM-ENBM

Flight info

Callsign LNTER
Flight time 0h 33m
Altitude 4000
Route LOCAL
Aircraft C208/L-VGD/C

Departure

Time 2026-04-27 09:18
Airport Bømoen Airfield (ENBM)

Arrival

Time 2026-04-27 09:52
Airport Bømoen Airfield (ENBM)
Time Latitude Longitude Altitude Speed Heading
2026-04-27 08:58 60.63925 6.49665 381 ft 0 kts 266°
2026-04-27 09:10 60.63925 6.49664 383 ft 0 kts 266°
2026-04-27 09:13 60.63924 6.49650 377 ft 3 kts 239°
2026-04-27 09:13 60.63912 6.49644 379 ft 0 kts 177°
2026-04-27 09:13 60.63911 6.49644 379 ft 2 kts 182°
2026-04-27 09:13 60.63893 6.49567 379 ft 7 kts 266°
2026-04-27 09:14 60.63882 6.49539 379 ft 0 kts 176°
2026-04-27 09:17 60.63879 6.49539 378 ft 3 kts 176°
2026-04-27 09:17 60.63860 6.49577 380 ft 0 kts 85°
2026-04-27 09:17 60.63873 6.49921 383 ft 56 kts 86°
2026-04-27 09:17 60.63920 6.51015 522 ft 88 kts 84°
2026-04-27 09:18 60.63962 6.52312 754 ft 97 kts 92°
2026-04-27 09:18 60.63592 6.53441 1083 ft 108 kts 159°
2026-04-27 09:18 60.62787 6.53307 1324 ft 124 kts 202°
2026-04-27 09:18 60.62244 6.51934 1536 ft 140 kts 260°
2026-04-27 09:19 60.62237 6.49822 1584 ft 156 kts 269°
2026-04-27 09:19 60.62268 6.47631 1589 ft 154 kts 270°
2026-04-27 09:19 60.62292 6.45594 1428 ft 131 kts 281°
2026-04-27 09:19 60.62811 6.44383 1211 ft 115 kts 348°
2026-04-27 09:20 60.63487 6.44872 1023 ft 102 kts 57°
2026-04-27 09:20 60.63705 6.46205 757 ft 96 kts 81°
2026-04-27 09:20 60.63776 6.47458 612 ft 80 kts 85°
2026-04-27 09:20 60.63819 6.48483 476 ft 67 kts 84°
2026-04-27 09:21 60.63855 6.49422 382 ft 65 kts 87°
2026-04-27 09:21 60.63886 6.50243 384 ft 53 kts 86°
2026-04-27 09:21 60.63926 6.51221 455 ft 85 kts 83°
2026-04-27 09:21 60.63984 6.52475 697 ft 94 kts 87°
2026-04-27 09:22 60.63763 6.53730 1038 ft 98 kts 140°
2026-04-27 09:22 60.63054 6.53877 1249 ft 121 kts 194°
2026-04-27 09:22 60.62171 6.53598 1494 ft 132 kts 175°
2026-04-27 09:22 60.61329 6.54322 1831 ft 135 kts 141°
2026-04-27 09:23 60.60671 6.55789 1991 ft 148 kts 124°
2026-04-27 09:23 60.60449 6.56574 2080 ft 149 kts 115°
2026-04-27 09:24 60.60357 6.57017 2153 ft 147 kts 110°
2026-04-27 09:24 60.59955 6.58892 2442 ft 145 kts 120°
2026-04-27 09:24 60.59551 6.60240 2589 ft 149 kts 120°
2026-04-27 09:25 60.59056 6.62101 2842 ft 149 kts 116°
2026-04-27 09:25 60.58610 6.64063 3004 ft 160 kts 114°
2026-04-27 09:25 60.58113 6.66109 2997 ft 161 kts 118°
2026-04-27 09:25 60.57512 6.68081 2955 ft 166 kts 126°
2026-04-27 09:26 60.56739 6.69825 2955 ft 166 kts 139°
2026-04-27 09:26 60.55749 6.71040 2920 ft 168 kts 158°
2026-04-27 09:26 60.54636 6.71682 2975 ft 165 kts 171°
2026-04-27 09:26 60.53496 6.71827 2971 ft 166 kts 184°
2026-04-27 09:27 60.52384 6.71210 2945 ft 168 kts 205°
2026-04-27 09:27 60.51405 6.69923 2963 ft 166 kts 217°
2026-04-27 09:27 60.50533 6.68456 2981 ft 162 kts 220°
2026-04-27 09:27 60.49694 6.66921 2960 ft 163 kts 221°
2026-04-27 09:28 60.48839 6.65407 2924 ft 163 kts 220°
2026-04-27 09:28 60.47975 6.63947 2911 ft 161 kts 216°
2026-04-27 09:28 60.47049 6.62680 2948 ft 161 kts 208°
2026-04-27 09:28 60.46002 6.61938 2946 ft 160 kts 190°
2026-04-27 09:29 60.44902 6.61883 2992 ft 156 kts 170°
2026-04-27 09:29 60.43879 6.62641 2988 ft 158 kts 151°
2026-04-27 09:29 60.42975 6.63896 2992 ft 158 kts 138°
2026-04-27 09:29 60.42325 6.65677 2990 ft 159 kts 114°
2026-04-27 09:30 60.42134 6.67863 3002 ft 159 kts 86°
2026-04-27 09:30 60.42446 6.70009 3009 ft 160 kts 62°
2026-04-27 09:30 60.43081 6.71873 2982 ft 161 kts 53°
2026-04-27 09:30 60.43744 6.73701 2987 ft 161 kts 54°
2026-04-27 09:31 60.44402 6.75530 2985 ft 160 kts 54°
2026-04-27 09:31 60.45065 6.77344 2991 ft 160 kts 53°
2026-04-27 09:31 60.45677 6.79231 2981 ft 160 kts 63°
2026-04-27 09:31 60.46077 6.81314 2992 ft 160 kts 71°
2026-04-27 09:32 60.46448 6.83440 2988 ft 160 kts 70°
2026-04-27 09:32 60.46794 6.85581 2992 ft 160 kts 74°
2026-04-27 09:32 60.47076 6.87770 3013 ft 160 kts 75°
2026-04-27 09:32 60.47354 6.89942 3027 ft 159 kts 75°
2026-04-27 09:33 60.47629 6.92130 3010 ft 160 kts 78°
2026-04-27 09:33 60.47807 6.94357 3011 ft 160 kts 83°
2026-04-27 09:33 60.47910 6.96595 3019 ft 160 kts 86°
2026-04-27 09:33 60.47907 6.98854 2980 ft 161 kts 94°
2026-04-27 09:34 60.47760 7.01091 3010 ft 159 kts 103°
2026-04-27 09:34 60.47400 7.03225 2980 ft 161 kts 105°
2026-04-27 09:34 60.47397 7.05443 2982 ft 161 kts 75°
2026-04-27 09:34 60.47837 7.07523 3042 ft 157 kts 65°
2026-04-27 09:35 60.48239 7.09498 3393 ft 148 kts 70°
2026-04-27 09:35 60.48548 7.11473 3663 ft 147 kts 75°
2026-04-27 09:35 60.48749 7.13500 3901 ft 147 kts 81°
2026-04-27 09:35 60.48868 7.15584 4092 ft 151 kts 86°
2026-04-27 09:36 60.48922 7.17706 4331 ft 151 kts 86°
2026-04-27 09:36 60.49007 7.19852 4508 ft 155 kts 84°
2026-04-27 09:36 60.49184 7.22005 4705 ft 156 kts 74°
2026-04-27 09:36 60.49612 7.24034 4924 ft 155 kts 58°
2026-04-27 09:37 60.50278 7.25780 5107 ft 157 kts 47°
2026-04-27 09:37 60.50891 7.27543 5469 ft 150 kts 61°
2026-04-27 09:37 60.51361 7.29408 5777 ft 148 kts 61°
2026-04-27 09:37 60.51843 7.31270 6076 ft 147 kts 60°
2026-04-27 09:38 60.52316 7.33109 6404 ft 148 kts 61°
2026-04-27 09:38 60.52767 7.34999 6740 ft 148 kts 64°
2026-04-27 09:38 60.53196 7.36889 7033 ft 148 kts 62°
2026-04-27 09:38 60.53657 7.38783 7259 ft 151 kts 60°
2026-04-27 09:39 60.54329 7.40457 7338 ft 158 kts 36°
2026-04-27 09:39 60.55311 7.41468 7354 ft 160 kts 11°
2026-04-27 09:39 60.56415 7.41364 7387 ft 161 kts 339°
2026-04-27 09:39 60.57333 7.40165 7481 ft 160 kts 311°
2026-04-27 09:40 60.57922 7.38204 7436 ft 165 kts 292°
2026-04-27 09:40 60.58280 7.35982 7434 ft 166 kts 283°
2026-04-27 09:40 60.58563 7.33708 7432 ft 166 kts 287°
2026-04-27 09:40 60.58829 7.31423 7424 ft 167 kts 275°
2026-04-27 09:41 60.58937 7.29060 7432 ft 169 kts 277°
2026-04-27 09:41 60.59089 7.26686 7428 ft 170 kts 278°
2026-04-27 09:41 60.59242 7.24299 7395 ft 172 kts 277°
2026-04-27 09:41 60.59399 7.21850 7276 ft 177 kts 277°
2026-04-27 09:42 60.59555 7.19362 7148 ft 177 kts 277°
2026-04-27 09:42 60.59711 7.16886 7023 ft 176 kts 277°
2026-04-27 09:42 60.59867 7.14422 6899 ft 175 kts 277°
2026-04-27 09:42 60.60023 7.11967 6746 ft 174 kts 277°
2026-04-27 09:43 60.60127 7.10350 6673 ft 174 kts 277°
2026-04-27 09:43 60.60284 7.07918 6551 ft 174 kts 277°
2026-04-27 09:43 60.60437 7.05515 6522 ft 170 kts 277°
2026-04-27 09:43 60.60588 7.03121 6520 ft 171 kts 277°
2026-04-27 09:44 60.60740 7.00706 6516 ft 172 kts 277°
2026-04-27 09:44 60.60895 6.98287 6509 ft 173 kts 277°
2026-04-27 09:44 60.61044 6.95869 6498 ft 171 kts 277°
2026-04-27 09:44 60.60922 6.93465 6215 ft 177 kts 251°
2026-04-27 09:45 60.60459 6.91167 6047 ft 173 kts 248°
2026-04-27 09:45 60.60006 6.88959 5805 ft 168 kts 247°
2026-04-27 09:45 60.59542 6.86753 5558 ft 169 kts 246°
2026-04-27 09:45 60.59055 6.84590 5335 ft 168 kts 245°
2026-04-27 09:46 60.58568 6.82401 5018 ft 171 kts 246°
2026-04-27 09:46 60.58133 6.80169 4797 ft 168 kts 252°
2026-04-27 09:46 60.57957 6.77805 4487 ft 171 kts 266°
2026-04-27 09:46 60.57984 6.75416 4301 ft 167 kts 273°
2026-04-27 09:47 60.58110 6.73068 4076 ft 167 kts 275°
2026-04-27 09:47 60.58248 6.70718 3851 ft 167 kts 276°
2026-04-27 09:47 60.58416 6.68385 3636 ft 166 kts 277°
2026-04-27 09:47 60.58611 6.66058 3395 ft 166 kts 281°
2026-04-27 09:48 60.58863 6.63766 3146 ft 167 kts 284°
2026-04-27 09:48 60.59284 6.61522 2866 ft 168 kts 297°
2026-04-27 09:48 60.59926 6.59547 2669 ft 167 kts 306°
2026-04-27 09:48 60.60643 6.57729 2352 ft 162 kts 310°
2026-04-27 09:49 60.61383 6.56043 2060 ft 157 kts 313°
2026-04-27 09:49 60.62132 6.54434 1732 ft 156 kts 310°
2026-04-27 09:49 60.62617 6.52560 1487 ft 143 kts 279°
2026-04-27 09:49 60.62603 6.50656 1432 ft 128 kts 263°
2026-04-27 09:50 60.62504 6.48930 1458 ft 118 kts 262°
2026-04-27 09:50 60.62365 6.47346 1453 ft 108 kts 258°
2026-04-27 09:50 60.62490 6.45930 1287 ft 109 kts 317°
2026-04-27 09:50 60.63185 6.45666 1044 ft 102 kts 22°
2026-04-27 09:51 60.63633 6.46671 788 ft 98 kts 70°
2026-04-27 09:51 60.63770 6.47912 598 ft 83 kts 81°
2026-04-27 09:51 60.63837 6.49043 418 ft 77 kts 84°
2026-04-27 09:51 60.63878 6.50004 381 ft 58 kts 86°
2026-04-27 09:52 60.63906 6.50299 385 ft 9 kts 328°
2026-04-27 09:52 60.63914 6.50146 384 ft 18 kts 266°
2026-04-27 09:52 60.63904 6.49859 381 ft 14 kts 267°
2026-04-27 09:52 60.63928 6.49781 382 ft 7 kts 273°
2026-04-27 09:53 60.63942 6.49663 376 ft 9 kts 271°
2026-04-27 09:53 60.63924 6.49610 376 ft 0 kts 183°
2026-04-27 09:53 60.63925 6.49610 376 ft 0 kts 184°